sensor_id;sensor_type;location;lat;lon;timestamp;pressure;altitude;pressure_sealevel;temperature;humidity
11710;BME280;5911;51.036;6.972;2023-03-25T00:01:48;99647.19;;;11.23;100.00
11710;BME280;5911;51.036;6.972;2023-03-25T00:04:17;99653.13;;;11.25;100.00
11710;BME280;5911;51.036;6.972;2023-03-25T00:06:45;99660.22;;;11.24;100.00
11710;BME280;5911;51.036;6.972;2023-03-25T00:09:13;99648.53;;;11.27;100.00
11710;BME280;5911;51.036;6.972;2023-03-25T00:11:41;99654.94;;;11.24;100.00
11710;BME280;5911;51.036;6.972;2023-03-25T00:14:09;99646.03;;;11.25;100.00
11710;BME280;5911;51.036;6.972;2023-03-25T00:16:37;99651.84;;;11.29;100.00
11710;BME280;5911;51.036;6.972;2023-03-25T00:19:05;99655.97;;;11.32;100.00
11710;BME280;5911;51.036;6.972;2023-03-25T00:21:36;99644.91;;;11.28;100.00
11710;BME280;5911;51.036;6.972;2023-03-25T00:24:05;99647.41;;;11.30;100.00
11710;BME280;5911;51.036;6.972;2023-03-25T00:26:33;99648.44;;;11.37;100.00
11710;BME280;5911;51.036;6.972;2023-03-25T00:29:01;99654.31;;;11.31;100.00
11710;BME280;5911;51.036;6.972;2023-03-25T00:31:28;99647.59;;;11.36;100.00
11710;BME280;5911;51.036;6.972;2023-03-25T00:33:56;99644.81;;;11.38;100.00
11710;BME280;5911;51.036;6.972;2023-03-25T00:36:25;99645.50;;;11.40;100.00
11710;BME280;5911;51.036;6.972;2023-03-25T00:38:54;99641.50;;;11.36;100.00
11710;BME280;5911;51.036;6.972;2023-03-25T00:41:24;99638.69;;;11.37;100.00
11710;BME280;5911;51.036;6.972;2023-03-25T00:43:54;99625.09;;;11.24;100.00
11710;BME280;5911;51.036;6.972;2023-03-25T00:46:24;99640.34;;;11.38;100.00
11710;BME280;5911;51.036;6.972;2023-03-25T00:48:54;99644.66;;;11.39;100.00
11710;BME280;5911;51.036;6.972;2023-03-25T00:51:23;99639.53;;;11.38;100.00
11710;BME280;5911;51.036;6.972;2023-03-25T00:53:54;99640.06;;;11.41;100.00
11710;BME280;5911;51.036;6.972;2023-03-25T00:56:26;99635.84;;;11.31;100.00
11710;BME280;5911;51.036;6.972;2023-03-25T00:58:54;99639.22;;;11.41;100.00
11710;BME280;5911;51.036;6.972;2023-03-25T01:01:24;99621.63;;;11.23;100.00
11710;BME280;5911;51.036;6.972;2023-03-25T01:03:54;99628.84;;;11.21;100.00
11710;BME280;5911;51.036;6.972;2023-03-25T01:06:25;99636.03;;;11.29;100.00
11710;BME280;5911;51.036;6.972;2023-03-25T01:08:57;99640.34;;;11.38;100.00
11710;BME280;5911;51.036;6.972;2023-03-25T01:11:27;99639.31;;;11.31;99.62
11710;BME280;5911;51.036;6.972;2023-03-25T01:13:57;99642.03;;;11.39;99.11
11710;BME280;5911;51.036;6.972;2023-03-25T01:16:26;99620.19;;;11.29;98.27
11710;BME280;5911;51.036;6.972;2023-03-25T01:18:54;99642.78;;;11.32;98.52
11710;BME280;5911;51.036;6.972;2023-03-25T01:21:24;99626.44;;;11.28;98.63
11710;BME280;5911;51.036;6.972;2023-03-25T01:23:52;99636.22;;;11.36;98.67
11710;BME280;5911;51.036;6.972;2023-03-25T01:26:21;99646.78;;;11.36;99.60
11710;BME280;5911;51.036;6.972;2023-03-25T01:28:48;99595.41;;;11.04;98.75
11710;BME280;5911;51.036;6.972;2023-03-25T01:31:16;99636.50;;;11.33;98.70
11710;BME280;5911;51.036;6.972;2023-03-25T01:33:44;99624.94;;;11.25;99.26
11710;BME280;5911;51.036;6.972;2023-03-25T01:36:12;99631.22;;;11.33;100.00
11710;BME280;5911;51.036;6.972;2023-03-25T01:38:40;99630.56;;;11.31;99.59
11710;BME280;5911;51.036;6.972;2023-03-25T01:41:08;99635.91;;;11.39;100.00
11710;BME280;5911;51.036;6.972;2023-03-25T01:43:38;99642.31;;;11.36;100.00
11710;BME280;5911;51.036;6.972;2023-03-25T01:46:10;99639.53;;;11.38;99.67
11710;BME280;5911;51.036;6.972;2023-03-25T01:48:41;99626.78;;;11.33;100.00
11710;BME280;5911;51.036;6.972;2023-03-25T01:51:13;99612.72;;;11.24;99.95
11710;BME280;5911;51.036;6.972;2023-03-25T01:53:43;99588.06;;;11.16;100.00
11710;BME280;5911;51.036;6.972;2023-03-25T01:56:15;99608.03;;;11.18;98.99
11710;BME280;5911;51.036;6.972;2023-03-25T01:58:47;99624.94;;;11.25;99.58
11710;BME280;5911;51.036;6.972;2023-03-25T02:01:17;99610.31;;;11.13;98.94
11710;BME280;5911;51.036;6.972;2023-03-25T02:03:48;99619.44;;;11.19;99.48
11710;BME280;5911;51.036;6.972;2023-03-25T02:06:20;99606.38;;;11.17;99.30
11710;BME280;5911;51.036;6.972;2023-03-25T02:08:55;99613.84;;;11.22;99.23
11710;BME280;5911;51.036;6.972;2023-03-25T02:11:25;99603.06;;;11.15;99.72
11710;BME280;5911;51.036;6.972;2023-03-25T02:14:01;99603.59;;;11.19;99.75
11710;BME280;5911;51.036;6.972;2023-03-25T02:16:36;99590.53;;;11.17;99.76
11710;BME280;5911;51.036;6.972;2023-03-25T02:19:57;99604.22;;;11.13;100.00
11710;BME280;5911;51.036;6.972;2023-03-25T02:22:54;99570.84;;;10.86;100.00
11710;BME280;5911;51.036;6.972;2023-03-25T02:26:02;99599.84;;;11.04;100.00
11710;BME280;5911;51.036;6.972;2023-03-25T02:28:37;99605.66;;;11.07;100.00
11710;BME280;5911;51.036;6.972;2023-03-25T02:31:18;99604.59;;;11.00;100.00
11710;BME280;5911;51.036;6.972;2023-03-25T02:37:17;99604.91;;;10.97;100.00
11710;BME280;5911;51.036;6.972;2023-03-25T02:39:55;99608.25;;;10.99;100.00
11710;BME280;5911;51.036;6.972;2023-03-25T02:42:32;99613.28;;;11.10;100.00
11710;BME280;5911;51.036;6.972;2023-03-25T02:45:04;99605.94;;;11.04;100.00
11710;BME280;5911;51.036;6.972;2023-03-25T02:47:37;99602.63;;;11.02;100.00
11710;BME280;5911;51.036;6.972;2023-03-25T02:50:10;99604.28;;;11.03;100.00
11710;BME280;5911;51.036;6.972;2023-03-25T02:52:43;99611.22;;;11.04;100.00
11710;BME280;5911;51.036;6.972;2023-03-25T02:55:16;99603.69;;;11.09;100.00
11710;BME280;5911;51.036;6.972;2023-03-25T02:57:48;99607.63;;;11.05;100.00
11710;BME280;5911;51.036;6.972;2023-03-25T03:00:24;99612.69;;;10.99;100.00
11710;BME280;5911;51.036;6.972;2023-03-25T03:02:54;99617.44;;;10.95;100.00
11710;BME280;5911;51.036;6.972;2023-03-25T03:05:29;99607.84;;;10.94;100.00
11710;BME280;5911;51.036;6.972;2023-03-25T03:08:19;99615.78;;;10.94;100.00
11710;BME280;5911;51.036;6.972;2023-03-25T03:10:56;99612.16;;;10.95;100.00
11710;BME280;5911;51.036;6.972;2023-03-25T03:13:34;99592.19;;;10.92;100.00
11710;BME280;5911;51.036;6.972;2023-03-25T03:16:11;99589.53;;;10.92;100.00
11710;BME280;5911;51.036;6.972;2023-03-25T03:18:45;99570.34;;;10.82;100.00
11710;BME280;5911;51.036;6.972;2023-03-25T03:21:21;99580.34;;;10.97;100.00
11710;BME280;5911;51.036;6.972;2023-03-25T03:23:55;99593.72;;;11.03;100.00
11710;BME280;5911;51.036;6.972;2023-03-25T03:26:32;99591.41;;;11.00;100.00
11710;BME280;5911;51.036;6.972;2023-03-25T03:29:07;99594.03;;;11.00;100.00
11710;BME280;5911;51.036;6.972;2023-03-25T03:31:40;99600.47;;;10.98;100.00
11710;BME280;5911;51.036;6.972;2023-03-25T03:34:33;99601.31;;;10.98;100.00
11710;BME280;5911;51.036;6.972;2023-03-25T03:37:07;99589.38;;;10.94;100.00
11710;BME280;5911;51.036;6.972;2023-03-25T03:39:39;99584.13;;;10.94;100.00
11710;BME280;5911;51.036;6.972;2023-03-25T03:42:13;99600.25;;;10.91;100.00
11710;BME280;5911;51.036;6.972;2023-03-25T03:44:47;99600.78;;;10.95;100.00
11710;BME280;5911;51.036;6.972;2023-03-25T03:47:19;99596.31;;;10.95;100.00
11710;BME280;5911;51.036;6.972;2023-03-25T03:49:51;99599.78;;;10.96;100.00
11710;BME280;5911;51.036;6.972;2023-03-25T03:52:24;99608.84;;;10.93;100.00
11710;BME280;5911;51.036;6.972;2023-03-25T03:54:57;99607.31;;;10.90;100.00
11710;BME280;5911;51.036;6.972;2023-03-25T03:57:32;99606.28;;;10.83;100.00
11710;BME280;5911;51.036;6.972;2023-03-25T04:00:05;99608.09;;;10.83;100.00
11710;BME280;5911;51.036;6.972;2023-03-25T04:02:41;99613.69;;;10.80;100.00
11710;BME280;5911;51.036;6.972;2023-03-25T04:05:15;99597.16;;;10.78;100.00
11710;BME280;5911;51.036;6.972;2023-03-25T04:07:49;99620.75;;;10.79;100.00
11710;BME280;5911;51.036;6.972;2023-03-25T04:10:22;99592.88;;;10.77;100.00
11710;BME280;5911;51.036;6.972;2023-03-25T04:12:57;99603.94;;;10.80;100.00
11710;BME280;5911;51.036;6.972;2023-03-25T04:15:27;99584.41;;;10.73;100.00
11710;BME280;5911;51.036;6.972;2023-03-25T04:17:54;99604.25;;;10.77;100.00
11710;BME280;5911;51.036;6.972;2023-03-25T04:20:24;99615.69;;;10.86;100.00
11710;BME280;5911;51.036;6.972;2023-03-25T04:22:55;99608.94;;;10.83;100.00
11710;BME280;5911;51.036;6.972;2023-03-25T04:25:22;99605.63;;;10.81;100.00
11710;BME280;5911;51.036;6.972;2023-03-25T04:27:51;99610.88;;;10.81;100.00
11710;BME280;5911;51.036;6.972;2023-03-25T04:30:27;99608.25;;;10.81;100.00
11710;BME280;5911;51.036;6.972;2023-03-25T04:32:55;99617.00;;;10.82;100.00
11710;BME280;5911;51.036;6.972;2023-03-25T04:35:23;99611.72;;;10.82;100.00
11710;BME280;5911;51.036;6.972;2023-03-25T04:37:51;99611.72;;;10.82;100.00
11710;BME280;5911;51.036;6.972;2023-03-25T04:40:23;99611.72;;;10.82;100.00
11710;BME280;5911;51.036;6.972;2023-03-25T04:42:51;99600.19;;;10.83;100.00
11710;BME280;5911;51.036;6.972;2023-03-25T04:45:22;99585.53;;;10.71;100.00
11710;BME280;5911;51.036;6.972;2023-03-25T04:47:52;99607.94;;;10.84;100.00
11710;BME280;5911;51.036;6.972;2023-03-25T04:50:23;99616.84;;;10.83;98.52
11710;BME280;5911;51.036;6.972;2023-03-25T04:52:51;99581.03;;;10.63;98.97
11710;BME280;5911;51.036;6.972;2023-03-25T04:55:20;99609.44;;;10.87;98.69
11710;BME280;5911;51.036;6.972;2023-03-25T04:57:49;99622.47;;;10.88;98.70
11710;BME280;5911;51.036;6.972;2023-03-25T05:00:19;99609.44;;;10.87;99.15
11710;BME280;5911;51.036;6.972;2023-03-25T05:02:49;99609.44;;;10.87;97.91
11710;BME280;5911;51.036;6.972;2023-03-25T05:05:22;99610.25;;;10.87;97.62
11710;BME280;5911;51.036;6.972;2023-03-25T05:07:51;99611.09;;;10.88;98.06
11710;BME280;5911;51.036;6.972;2023-03-25T05:10:21;99607.63;;;10.87;97.07
11710;BME280;5911;51.036;6.972;2023-03-25T05:12:49;99609.13;;;10.90;97.20
11710;BME280;5911;51.036;6.972;2023-03-25T05:15:17;99600.25;;;10.91;97.03
11710;BME280;5911;51.036;6.972;2023-03-25T05:17:45;99609.97;;;10.90;97.64
11710;BME280;5911;51.036;6.972;2023-03-25T05:20:12;99599.22;;;10.84;97.14
11710;BME280;5911;51.036;6.972;2023-03-25T05:22:43;99600.78;;;10.95;97.94
11710;BME280;5911;51.036;6.972;2023-03-25T05:25:11;99607.19;;;10.92;96.80
11710;BME280;5911;51.036;6.972;2023-03-25T05:27:38;99598.66;;;10.98;97.10
11710;BME280;5911;51.036;6.972;2023-03-25T05:30:07;99593.69;;;10.95;96.79
11710;BME280;5911;51.036;6.972;2023-03-25T05:32:35;99615.63;;;10.96;96.42
11710;BME280;5911;51.036;6.972;2023-03-25T05:35:07;99605.13;;;10.86;95.69
11710;BME280;5911;51.036;6.972;2023-03-25T05:37:36;99611.09;;;10.88;95.68
11710;BME280;5911;51.036;6.972;2023-03-25T05:40:07;99613.13;;;10.94;95.78
11710;BME280;5911;51.036;6.972;2023-03-25T05:42:41;99609.00;;;10.91;96.07
11710;BME280;5911;51.036;6.972;2023-03-25T05:45:14;99588.03;;;10.72;95.47
11710;BME280;5911;51.036;6.972;2023-03-25T05:47:42;99619.97;;;10.87;96.22
11710;BME280;5911;51.036;6.972;2023-03-25T05:50:11;99613.28;;;10.92;96.10
11710;BME280;5911;51.036;6.972;2023-03-25T05:52:40;99612.97;;;10.96;96.00
11710;BME280;5911;51.036;6.972;2023-03-25T05:55:11;99622.56;;;10.97;95.70
11710;BME280;5911;51.036;6.972;2023-03-25T05:57:41;99624.66;;;10.93;95.19
11710;BME280;5911;51.036;6.972;2023-03-25T06:00:10;99617.72;;;10.92;95.25
11710;BME280;5911;51.036;6.972;2023-03-25T06:02:39;99623.00;;;10.92;95.77
11710;BME280;5911;51.036;6.972;2023-03-25T06:05:09;99608.16;;;10.91;95.34
11710;BME280;5911;51.036;6.972;2023-03-25T06:07:42;99626.31;;;10.94;94.82
11710;BME280;5911;51.036;6.972;2023-03-25T06:10:13;99615.16;;;11.00;95.39
11710;BME280;5911;51.036;6.972;2023-03-25T06:12:45;99611.09;;;10.88;95.51
11710;BME280;5911;51.036;6.972;2023-03-25T06:15:15;99626.03;;;10.97;95.79
11710;BME280;5911;51.036;6.972;2023-03-25T06:17:49;99624.38;;;10.96;95.86
11710;BME280;5911;51.036;6.972;2023-03-25T06:20:17;99672.47;;;10.90;99.70
11710;BME280;5911;51.036;6.972;2023-03-25T06:22:45;99629.06;;;10.84;100.00
11710;BME280;5911;51.036;6.972;2023-03-25T06:25:16;99631.38;;;10.70;100.00
11710;BME280;5911;51.036;6.972;2023-03-25T06:27:47;99618.03;;;10.53;100.00
11710;BME280;5911;51.036;6.972;2023-03-25T06:30:17;99618.09;;;10.44;100.00
11710;BME280;5911;51.036;6.972;2023-03-25T06:32:45;99613.88;;;10.33;100.00
11710;BME280;5911;51.036;6.972;2023-03-25T06:35:17;99595.31;;;10.25;100.00
11710;BME280;5911;51.036;6.972;2023-03-25T06:37:46;99607.66;;;10.25;100.00
11710;BME280;5911;51.036;6.972;2023-03-25T06:40:27;99622.34;;;10.27;100.00
11710;BME280;5911;51.036;6.972;2023-03-25T06:42:56;99619.72;;;10.27;100.00
11710;BME280;5911;51.036;6.972;2023-03-25T06:45:44;99621.00;;;10.23;100.00
11710;BME280;5911;51.036;6.972;2023-03-25T06:48:21;99614.09;;;10.22;100.00
11710;BME280;5911;51.036;6.972;2023-03-25T06:50:49;99621.00;;;10.23;100.00
11710;BME280;5911;51.036;6.972;2023-03-25T06:53:17;99614.31;;;10.29;100.00
11710;BME280;5911;51.036;6.972;2023-03-25T06:55:47;99614.56;;;10.35;100.00
11710;BME280;5911;51.036;6.972;2023-03-25T06:58:15;99608.59;;;10.33;100.00
11710;BME280;5911;51.036;6.972;2023-03-25T07:00:43;99621.50;;;10.36;100.00
11710;BME280;5911;51.036;6.972;2023-03-25T07:03:11;99636.97;;;10.39;100.00
11710;BME280;5911;51.036;6.972;2023-03-25T07:05:40;99633.00;;;10.35;100.00
11710;BME280;5911;51.036;6.972;2023-03-25T07:08:09;99625.59;;;10.21;100.00
11710;BME280;5911;51.036;6.972;2023-03-25T07:10:36;99636.63;;;10.34;100.00
11710;BME280;5911;51.036;6.972;2023-03-25T07:13:08;99665.19;;;10.39;100.00
11710;BME280;5911;51.036;6.972;2023-03-25T07:15:36;99642.94;;;10.41;100.00
11710;BME280;5911;51.036;6.972;2023-03-25T07:18:04;99657.09;;;10.40;100.00
11710;BME280;5911;51.036;6.972;2023-03-25T07:20:32;99650.56;;;10.44;100.00
11710;BME280;5911;51.036;6.972;2023-03-25T07:23:00;99638.06;;;10.46;100.00
11710;BME280;5911;51.036;6.972;2023-03-25T07:25:27;99650.28;;;10.47;100.00
11710;BME280;5911;51.036;6.972;2023-03-25T07:27:55;99644.72;;;10.50;100.00
11710;BME280;5911;51.036;6.972;2023-03-25T07:30:28;99640.25;;;10.51;100.00
11710;BME280;5911;51.036;6.972;2023-03-25T07:32:55;99645.91;;;10.56;100.00
11710;BME280;5911;51.036;6.972;2023-03-25T07:35:23;99617.03;;;10.37;100.00
11710;BME280;5911;51.036;6.972;2023-03-25T07:37:51;99648.50;;;10.66;100.00
11710;BME280;5911;51.036;6.972;2023-03-25T07:40:19;99662.72;;;10.73;100.00
11710;BME280;5911;51.036;6.972;2023-03-25T07:42:50;99658.75;;;10.69;100.00
11710;BME280;5911;51.036;6.972;2023-03-25T07:45:22;99652.84;;;10.75;100.00
11710;BME280;5911;51.036;6.972;2023-03-25T07:47:53;99651.88;;;10.76;100.00
11710;BME280;5911;51.036;6.972;2023-03-25T07:50:21;99658.97;;;10.75;100.00
11710;BME280;5911;51.036;6.972;2023-03-25T07:52:51;99651.81;;;10.68;100.00
11710;BME280;5911;51.036;6.972;2023-03-25T07:55:20;99639.44;;;10.50;100.00
11710;BME280;5911;51.036;6.972;2023-03-25T07:57:47;99664.38;;;10.74;100.00
11710;BME280;5911;51.036;6.972;2023-03-25T08:00:18;99673.75;;;10.68;100.00
11710;BME280;5911;51.036;6.972;2023-03-25T08:02:46;99625.56;;;10.48;100.00
11710;BME280;5911;51.036;6.972;2023-03-25T08:05:15;99670.34;;;10.76;100.00
11710;BME280;5911;51.036;6.972;2023-03-25T08:07:47;99679.22;;;10.75;100.00
11710;BME280;5911;51.036;6.972;2023-03-25T08:10:15;99670.59;;;10.82;100.00
11710;BME280;5911;51.036;6.972;2023-03-25T08:12:44;99681.88;;;10.75;100.00
11710;BME280;5911;51.036;6.972;2023-03-25T08:15:12;99680.59;;;10.79;100.00
11710;BME280;5911;51.036;6.972;2023-03-25T08:17:40;99675.31;;;10.79;100.00
11710;BME280;5911;51.036;6.972;2023-03-25T08:20:08;99690.03;;;10.81;100.00
11710;BME280;5911;51.036;6.972;2023-03-25T08:22:38;99691.84;;;10.81;100.00
11710;BME280;5911;51.036;6.972;2023-03-25T08:25:07;99700.66;;;10.89;100.00
11710;BME280;5911;51.036;6.972;2023-03-25T08:27:37;99704.13;;;10.90;100.00
11710;BME280;5911;51.036;6.972;2023-03-25T08:30:06;99694.47;;;10.81;100.00
11710;BME280;5911;51.036;6.972;2023-03-25T08:32:36;99706.59;;;10.91;100.00
11710;BME280;5911;51.036;6.972;2023-03-25T08:35:06;99683.63;;;10.84;100.00
11710;BME280;5911;51.036;6.972;2023-03-25T08:37:34;99705.53;;;11.02;100.00
11710;BME280;5911;51.036;6.972;2023-03-25T08:40:06;99710.97;;;11.01;100.00
11710;BME280;5911;51.036;6.972;2023-03-25T08:42:35;99708.81;;;10.96;100.00
11710;BME280;5911;51.036;6.972;2023-03-25T08:45:07;99713.25;;;10.96;100.00
11710;BME280;5911;51.036;6.972;2023-03-25T08:47:35;99715.50;;;10.90;100.00
11710;BME280;5911;51.036;6.972;2023-03-25T08:50:04;99723.66;;;10.97;100.00
11710;BME280;5911;51.036;6.972;2023-03-25T08:52:32;99712.63;;;11.02;100.00
11710;BME280;5911;51.036;6.972;2023-03-25T08:55:00;99723.72;;;11.05;100.00
11710;BME280;5911;51.036;6.972;2023-03-25T08:57:29;99718.16;;;11.08;100.00
11710;BME280;5911;51.036;6.972;2023-03-25T08:59:57;99719.81;;;11.09;100.00
11710;BME280;5911;51.036;6.972;2023-03-25T09:02:25;99707.97;;;11.13;100.00
11710;BME280;5911;51.036;6.972;2023-03-25T09:04:53;99718.41;;;11.15;100.00
11710;BME280;5911;51.036;6.972;2023-03-25T09:07:21;99723.44;;;11.08;100.00
11710;BME280;5911;51.036;6.972;2023-03-25T09:09:51;99717.75;;;11.03;100.00
11710;BME280;5911;51.036;6.972;2023-03-25T09:12:19;99713.47;;;11.02;98.84
11710;BME280;5911;51.036;6.972;2023-03-25T09:14:48;99716.09;;;11.02;98.29
11710;BME280;5911;51.036;6.972;2023-03-25T09:17:16;99713.16;;;11.05;97.90
11710;BME280;5911;51.036;6.972;2023-03-25T09:19:44;99719.28;;;11.06;97.56
11710;BME280;5911;51.036;6.972;2023-03-25T09:22:13;99719.19;;;11.15;98.43
11710;BME280;5911;51.036;6.972;2023-03-25T09:24:41;99711.38;;;11.23;97.69
11710;BME280;5911;51.036;6.972;2023-03-25T09:27:09;99706.47;;;11.28;97.82
11710;BME280;5911;51.036;6.972;2023-03-25T09:29:37;99729.31;;;11.38;96.64
11710;BME280;5911;51.036;6.972;2023-03-25T09:32:06;99719.13;;;11.43;95.47
11710;BME280;5911;51.036;6.972;2023-03-25T09:34:34;99740.00;;;11.54;94.39
11710;BME280;5911;51.036;6.972;2023-03-25T09:37:03;99720.84;;;11.52;92.80
11710;BME280;5911;51.036;6.972;2023-03-25T09:39:31;99706.94;;;11.50;94.88
11710;BME280;5911;51.036;6.972;2023-03-25T09:42:32;99719.13;;;11.43;92.40
11710;BME280;5911;51.036;6.972;2023-03-25T09:45:16;99731.94;;;11.38;89.14
11710;BME280;5911;51.036;6.972;2023-03-25T09:47:56;99679.44;;;11.35;91.30
11710;BME280;5911;51.036;6.972;2023-03-25T09:50:28;99710.53;;;11.67;91.56
11710;BME280;5911;51.036;6.972;2023-03-25T09:53:00;99694.00;;;11.64;90.82
11710;BME280;5911;51.036;6.972;2023-03-25T09:55:31;99720.72;;;11.79;90.33
11710;BME280;5911;51.036;6.972;2023-03-25T09:58:02;99712.56;;;11.90;91.67
11710;BME280;5911;51.036;6.972;2023-03-25T10:00:31;99695.59;;;11.75;89.84
11710;BME280;5911;51.036;6.972;2023-03-25T10:03:16;99719.66;;;11.90;89.28
11710;BME280;5911;51.036;6.972;2023-03-25T10:06:16;99726.69;;;11.81;89.71
11710;BME280;5911;51.036;6.972;2023-03-25T10:08:58;99675.38;;;11.40;88.80
11710;BME280;5911;51.036;6.972;2023-03-25T10:11:34;99748.44;;;11.75;88.74
11710;BME280;5911;51.036;6.972;2023-03-25T10:14:09;99724.50;;;11.77;87.88
11710;BME280;5911;51.036;6.972;2023-03-25T10:16:52;99714.63;;;11.61;89.30
11710;BME280;5911;51.036;6.972;2023-03-25T10:19:36;99736.50;;;11.71;93.25
11710;BME280;5911;51.036;6.972;2023-03-25T10:22:11;99692.63;;;11.52;91.99
11710;BME280;5911;51.036;6.972;2023-03-25T10:24:45;99700.75;;;11.59;91.12
11710;BME280;5911;51.036;6.972;2023-03-25T10:27:20;99636.38;;;11.16;92.28
11710;BME280;5911;51.036;6.972;2023-03-25T10:29:52;99686.38;;;11.36;98.25
11710;BME280;5911;51.036;6.972;2023-03-25T10:32:31;99723.03;;;11.39;98.95
11710;BME280;5911;51.036;6.972;2023-03-25T10:35:05;99750.88;;;11.51;99.99
11710;BME280;5911;51.036;6.972;2023-03-25T10:37:38;99717.38;;;11.34;98.86
11710;BME280;5911;51.036;6.972;2023-03-25T10:40:26;99748.50;;;11.66;100.00
11710;BME280;5911;51.036;6.972;2023-03-25T10:43:04;99645.19;;;10.99;97.69
11710;BME280;5911;51.036;6.972;2023-03-25T10:45:35;99689.47;;;11.31;97.26
11710;BME280;5911;51.036;6.972;2023-03-25T10:48:08;99716.09;;;11.55;96.81
11710;BME280;5911;51.036;6.972;2023-03-25T10:50:43;99744.28;;;11.73;94.61
11710;BME280;5911;51.036;6.972;2023-03-25T10:53:18;99751.06;;;11.75;93.56
11710;BME280;5911;51.036;6.972;2023-03-25T10:55:48;99723.44;;;11.70;93.61
11710;BME280;5911;51.036;6.972;2023-03-25T10:58:18;99708.72;;;11.67;93.06
11710;BME280;5911;51.036;6.972;2023-03-25T11:00:47;99742.53;;;11.81;91.12
11710;BME280;5911;51.036;6.972;2023-03-25T11:03:16;99752.06;;;11.74;89.29
11710;BME280;5911;51.036;6.972;2023-03-25T11:05:50;99742.91;;;11.86;90.41
11710;BME280;5911;51.036;6.972;2023-03-25T11:08:19;99742.97;;;11.94;89.62
11710;BME280;5911;51.036;6.972;2023-03-25T11:10:51;99675.38;;;11.40;88.06
11710;BME280;5911;51.036;6.972;2023-03-25T11:13:24;99721.72;;;12.04;86.91
11710;BME280;5911;51.036;6.972;2023-03-25T11:15:55;99767.09;;;12.25;85.30
11710;BME280;5911;51.036;6.972;2023-03-25T11:18:27;99814.22;;;12.56;83.33
11710;BME280;5911;51.036;6.972;2023-03-25T11:21:00;99765.34;;;13.18;81.04
11710;BME280;5911;51.036;6.972;2023-03-25T11:23:31;99765.22;;;12.86;81.67
11710;BME280;5911;51.036;6.972;2023-03-25T11:26:04;99775.44;;;12.73;84.91
11710;BME280;5911;51.036;6.972;2023-03-25T11:28:35;99673.81;;;12.07;85.34
11710;BME280;5911;51.036;6.972;2023-03-25T11:31:10;99810.03;;;12.45;84.83
11710;BME280;5911;51.036;6.972;2023-03-25T11:33:40;99791.66;;;12.36;85.70
11710;BME280;5911;51.036;6.972;2023-03-25T11:36:26;99782.88;;;12.35;86.50
11710;BME280;5911;51.036;6.972;2023-03-25T11:38:58;99780.53;;;12.32;86.30
11710;BME280;5911;51.036;6.972;2023-03-25T11:41:32;99763.00;;;12.31;86.48
11710;BME280;5911;51.036;6.972;2023-03-25T11:44:01;99774.06;;;12.26;87.07
11710;BME280;5911;51.036;6.972;2023-03-25T11:46:30;99752.47;;;12.39;87.47
11710;BME280;5911;51.036;6.972;2023-03-25T11:49:07;99759.97;;;12.18;87.58
11710;BME280;5911;51.036;6.972;2023-03-25T11:51:39;99756.03;;;12.22;89.95
11710;BME280;5911;51.036;6.972;2023-03-25T11:54:08;99741.50;;;12.26;89.49
11710;BME280;5911;51.036;6.972;2023-03-25T11:56:40;99712.91;;;11.95;88.33
11710;BME280;5911;51.036;6.972;2023-03-25T11:59:17;99744.09;;;12.18;92.82
11710;BME280;5911;51.036;6.972;2023-03-25T12:01:50;99758.72;;;12.30;94.39
11710;BME280;5911;51.036;6.972;2023-03-25T12:04:19;99711.94;;;12.30;93.20
11710;BME280;5911;51.036;6.972;2023-03-25T12:06:59;99743.78;;;12.55;92.46
11710;BME280;5911;51.036;6.972;2023-03-25T12:09:29;99745.72;;;12.45;90.04
11710;BME280;5911;51.036;6.972;2023-03-25T12:12:21;99777.59;;;12.35;87.67
11710;BME280;5911;51.036;6.972;2023-03-25T12:14:58;99649.53;;;11.52;88.25
11710;BME280;5911;51.036;6.972;2023-03-25T12:17:36;99746.78;;;12.26;88.82
11710;BME280;5911;51.036;6.972;2023-03-25T12:20:14;99738.03;;;12.25;87.37
11710;BME280;5911;51.036;6.972;2023-03-25T12:23:05;99730.44;;;12.30;91.09
11710;BME280;5911;51.036;6.972;2023-03-25T12:25:41;99734.88;;;12.22;89.33
11710;BME280;5911;51.036;6.972;2023-03-25T12:28:27;99700.09;;;12.09;89.31
11710;BME280;5911;51.036;6.972;2023-03-25T12:31:05;99722.66;;;12.21;88.98
11710;BME280;5911;51.036;6.972;2023-03-25T12:33:46;99674.47;;;12.01;89.07
11710;BME280;5911;51.036;6.972;2023-03-25T12:36:24;99705.16;;;12.28;91.02
11710;BME280;5911;51.036;6.972;2023-03-25T12:39:03;99692.59;;;12.22;86.24
11710;BME280;5911;51.036;6.972;2023-03-25T12:41:41;99706.53;;;12.40;84.05
11710;BME280;5911;51.036;6.972;2023-03-25T12:44:16;99716.59;;;12.79;83.70
11710;BME280;5911;51.036;6.972;2023-03-25T12:47:03;99722.84;;;14.32;75.62
11710;BME280;5911;51.036;6.972;2023-03-25T12:49:49;99726.47;;;14.47;69.18
11710;BME280;5911;51.036;6.972;2023-03-25T12:52:25;99697.75;;;14.82;63.42
11710;BME280;5911;51.036;6.972;2023-03-25T12:55:05;99730.25;;;14.36;63.90
11710;BME280;5911;51.036;6.972;2023-03-25T12:57:46;99700.59;;;13.78;65.86
11710;BME280;5911;51.036;6.972;2023-03-25T13:00:24;99701.47;;;13.54;68.66
11710;BME280;5911;51.036;6.972;2023-03-25T13:06:15;99694.50;;;13.53;68.38
11710;BME280;5911;51.036;6.972;2023-03-25T13:08:47;99702.78;;;13.50;68.41
11710;BME280;5911;51.036;6.972;2023-03-25T13:11:24;99699.47;;;13.40;66.78
11710;BME280;5911;51.036;6.972;2023-03-25T13:13:56;99683.91;;;13.36;68.07
11710;BME280;5911;51.036;6.972;2023-03-25T13:16:27;99695.16;;;13.30;67.61
11710;BME280;5911;51.036;6.972;2023-03-25T13:19:01;99720.78;;;13.14;64.95
11710;BME280;5911;51.036;6.972;2023-03-25T13:21:32;99747.41;;;13.04;66.95
11710;BME280;5911;51.036;6.972;2023-03-25T13:24:06;99702.53;;;12.86;72.51
11710;BME280;5911;51.036;6.972;2023-03-25T13:26:39;99686.13;;;12.66;84.80
11710;BME280;5911;51.036;6.972;2023-03-25T13:29:13;99690.06;;;12.62;82.47
11710;BME280;5911;51.036;6.972;2023-03-25T13:31:44;99663.88;;;12.35;83.09
11710;BME280;5911;51.036;6.972;2023-03-25T13:34:19;99719.94;;;12.13;93.81
11710;BME280;5911;51.036;6.972;2023-03-25T13:36:58;99769.81;;;11.46;100.00
11710;BME280;5911;51.036;6.972;2023-03-25T13:39:41;99752.97;;;10.94;100.00